Time;durP1;ratioP1;P1;durP2;ratioP2;P2;SDS_P1;SDS_P2;PMS_P1;PMS_P2;Temp;Humidity;BMP_temperature;BMP_pressure;BME280_temperature;BME280_humidity;BME280_pressure;Samples;Min_cycle;Max_cycle;Signal;HPM_P1;HPM_P2
2022/11/09 00:01:02;;;;;;;;;;;;;;;9.51;72.75;97704.03;5136745;27;19924;-55
2022/11/09 00:03:31;;;;;;;;;;;;;;;9.49;72.98;97705.44;5137117;27;19923;-58
2022/11/09 00:06:00;;;;;;;;;;;;;;;9.49;72.65;97706.25;5134068;27;19927;-57
2022/11/09 00:08:28;;;;;;;;;;;;;;;9.40;73.35;97700.75;5126861;27;19924;-57
2022/11/09 00:11:03;;;;;;;;;;;;;;;9.41;73.43;97696.13;5145510;27;20354;-57
2022/11/09 00:13:32;;;;;;;;;;;;;;;9.39;73.38;97696.44;5106260;27;19924;-57
2022/11/09 00:16:01;;;;;;;;;;;;;;;9.35;73.60;97698.16;5111368;27;19923;-57
2022/11/09 00:18:29;;;;;;;;;;;;;;;9.34;73.35;97696.56;5123290;27;19928;-57
2022/11/09 00:20:57;;;;;;;;;;;;;;;9.34;73.26;97693.88;5124899;27;19923;-57
2022/11/09 00:23:25;;;;;;;;;;;;;;;9.33;73.19;97691.47;5110045;27;20367;-57
2022/11/09 00:25:54;;;;;;;;;;;;;;;9.26;73.56;97686.44;5117513;27;20304;-57
2022/11/09 00:28:22;;;;;;;;;;;;;;;9.29;73.53;97677.72;5139073;27;19927;-66
2022/11/09 00:30:51;;;;;;;;;;;;;;;9.26;73.22;97672.91;5116388;27;19923;-57
2022/11/09 00:33:23;;;;;;;;;;;;;;;9.24;73.50;97669.72;5145275;27;19924;-57
2022/11/09 00:35:52;;;;;;;;;;;;;;;9.18;73.69;97660.91;5106828;27;19923;-56
2022/11/09 00:38:45;;;;;;;;;;;;;;;9.20;73.67;97657.88;5108232;27;19924;-57
2022/11/09 00:41:13;;;;;;;;;;;;;;;9.21;73.30;97651.34;5130415;27;19923;-57
2022/11/09 00:43:41;;;;;;;;;;;;;;;9.21;73.15;97651.34;5113235;27;19923;-57
2022/11/09 00:46:10;;;;;;;;;;;;;;;9.22;73.03;97666.50;5144402;27;19946;-57
2022/11/09 00:48:40;;;;;;;;;;;;;;;9.18;73.11;97668.22;5113510;27;19931;-57
2022/11/09 00:51:11;;;;;;;;;;;;;;;9.18;73.16;97674.44;5113605;27;19924;-57
2022/11/09 00:53:41;;;;;;;;;;;;;;;9.17;73.13;97685.59;5129319;27;19974;-57
2022/11/09 00:56:10;;;;;;;;;;;;;;;9.17;73.42;97689.13;5120997;27;19924;-57
2022/11/09 00:59:03;;;;;;;;;;;;;;;9.15;73.82;97685.09;5143187;27;20041;-57
2022/11/09 01:01:34;;;;;;;;;;;;;;;9.14;73.69;97692.44;5136861;27;19950;-57
2022/11/09 01:04:02;;;;;;;;;;;;;;;9.09;73.84;97692.53;5127995;27;19923;-57
2022/11/09 01:06:31;;;;;;;;;;;;;;;9.06;74.16;97681.53;5119651;27;19923;-57
2022/11/09 01:09:01;;;;;;;;;;;;;;;9.03;74.30;97674.00;5130337;27;19928;-58
2022/11/09 01:11:29;;;;;;;;;;;;;;;9.07;74.16;97675.00;5115154;28;19931;-57
2022/11/09 01:13:58;;;;;;;;;;;;;;;9.07;73.87;97675.00;5129209;27;20383;-57
2022/11/09 01:16:28;;;;;;;;;;;;;;;9.06;73.67;97673.41;5126573;27;20021;-57
2022/11/09 01:18:59;;;;;;;;;;;;;;;9.08;73.53;97671.97;5111940;28;19935;-56
2022/11/09 01:21:27;;;;;;;;;;;;;;;9.11;73.45;97679.50;5125920;28;19939;-58
2022/11/09 01:24:00;;;;;;;;;;;;;;;9.13;73.66;97674.56;5105699;28;20271;-57
2022/11/09 01:26:28;;;;;;;;;;;;;;;9.19;73.31;97672.53;5110121;28;19924;-58
2022/11/09 01:28:56;;;;;;;;;;;;;;;9.20;73.38;97676.84;5112148;28;20272;-57
2022/11/09 01:31:25;;;;;;;;;;;;;;;9.24;73.64;97672.41;5130221;27;19935;-56
2022/11/09 01:34:18;;;;;;;;;;;;;;;9.24;73.42;97661.56;5135397;27;19923;-56
2022/11/09 01:36:47;;;;;;;;;;;;;;;9.22;73.84;97649.44;5117749;27;19927;-57
2022/11/09 01:39:15;;;;;;;;;;;;;;;9.30;73.19;97652.19;5102446;27;19935;-57
2022/11/09 01:41:44;;;;;;;;;;;;;;;9.33;72.83;97651.59;5113640;27;19924;-56
2022/11/09 01:44:13;;;;;;;;;;;;;;;9.35;72.90;97651.28;5136917;27;19969;-57
2022/11/09 01:46:43;;;;;;;;;;;;;;;9.38;72.62;97645.25;5140822;27;20331;-56
2022/11/09 01:52:07;;;;;;;;;;;;;;;9.42;72.20;97644.28;5135914;27;19924;-56
2022/11/09 01:54:36;;;;;;;;;;;;;;;9.44;72.29;97652.16;5139806;27;19923;-58
2022/11/09 01:57:05;;;;;;;;;;;;;;;9.42;72.09;97649.72;5112371;27;19923;-57
2022/11/09 01:59:34;;;;;;;;;;;;;;;9.43;71.95;97653.25;5120746;27;19923;-57
2022/11/09 02:02:02;;;;;;;;;;;;;;;9.35;72.24;97641.22;5114338;28;19932;-56
2022/11/09 02:04:36;;;;;;;;;;;;;;;9.42;72.09;97655.16;5109427;27;19931;-57
2022/11/09 02:07:06;;;;;;;;;;;;;;;9.41;72.29;97653.56;5112063;28;20382;-56
2022/11/09 02:09:36;;;;;;;;;;;;;;;9.43;72.20;97659.47;5124732;27;19974;-57
2022/11/09 02:12:06;;;;;;;;;;;;;;;9.42;72.37;97659.78;5121355;27;19924;-58
2022/11/09 02:14:34;;;;;;;;;;;;;;;9.42;72.50;97666.00;5110789;28;20372;-57
2022/11/09 02:17:02;;;;;;;;;;;;;;;9.42;72.40;97647.00;5115700;27;19930;-56
2022/11/09 02:22:26;;;;;;;;;;;;;;;9.41;72.39;97641.91;5107498;28;19924;-56
2022/11/09 02:24:54;;;;;;;;;;;;;;;9.45;72.21;97646.41;5115593;27;20018;-61
2022/11/09 02:27:23;;;;;;;;;;;;;;;9.48;72.46;97645.00;5111627;27;19924;-58
2022/11/09 02:29:53;;;;;;;;;;;;;;;9.48;72.57;97647.72;5113472;27;20300;-58
2022/11/09 02:32:22;;;;;;;;;;;;;;;9.50;72.39;97655.53;5135838;27;19951;-58
2022/11/09 02:35:17;;;;;;;;;;;;;;;9.49;72.15;97646.59;5111337;28;19928;-57
2022/11/09 02:37:48;;;;;;;;;;;;;;;9.55;72.05;97648.06;5107471;28;20006;-57
2022/11/09 02:40:18;;;;;;;;;;;;;;;9.58;72.15;97654.75;5112734;27;20413;-56
2022/11/09 02:42:46;;;;;;;;;;;;;;;9.60;71.96;97660.69;5126935;27;19935;-57
2022/11/09 02:45:14;;;;;;;;;;;;;;;9.52;72.32;97647.88;5112061;27;19928;-57
2022/11/09 02:47:43;;;;;;;;;;;;;;;9.57;72.40;97645.81;5094425;28;19924;-57
2022/11/09 02:50:38;;;;;;;;;;;;;;;9.62;72.05;97655.75;5098419;27;19967;-57
2022/11/09 02:53:10;;;;;;;;;;;;;;;9.56;71.90;97648.84;5118895;27;19963;-57
2022/11/09 02:55:42;;;;;;;;;;;;;;;9.64;72.01;97656.22;5125711;27;20540;-57
2022/11/09 02:58:11;;;;;;;;;;;;;;;9.67;71.87;97644.75;5112264;28;20357;-56
2022/11/09 03:03:57;;;;;;;;;;;;;;;9.54;71.96;97645.66;5109190;27;20194;-56
2022/11/09 03:06:33;;;;;;;;;;;;;;;9.59;72.23;97650.97;5093688;28;19932;-57
2022/11/09 03:09:08;;;;;;;;;;;;;;;9.62;72.06;97647.59;5091996;28;19924;-57
2022/11/09 03:11:36;;;;;;;;;;;;;;;9.62;72.12;97647.59;5088196;28;19928;-57
2022/11/09 03:14:05;;;;;;;;;;;;;;;9.51;72.08;97651.69;5089290;28;19936;-57
2022/11/09 03:16:35;;;;;;;;;;;;;;;9.50;72.51;97656.31;5091628;28;19924;-57
2022/11/09 03:19:05;;;;;;;;;;;;;;;9.56;72.15;97659.72;5094918;28;19932;-57
2022/11/09 03:21:37;;;;;;;;;;;;;;;9.51;72.35;97667.97;5091744;28;19952;-57
2022/11/09 03:24:07;;;;;;;;;;;;;;;9.52;72.65;97658.72;5089926;28;19928;-57
2022/11/09 03:26:37;;;;;;;;;;;;;;;9.56;72.33;97662.41;5093829;28;19929;-57
2022/11/09 03:29:05;;;;;;;;;;;;;;;9.54;72.58;97662.72;5096866;28;19931;-57
2022/11/09 03:31:33;;;;;;;;;;;;;;;9.53;72.62;97658.41;5091184;28;20345;-57
2022/11/09 03:34:05;;;;;;;;;;;;;;;9.47;72.71;97662.34;5094257;28;19932;-57
2022/11/09 03:36:39;;;;;;;;;;;;;;;9.49;72.63;97662.88;5086850;28;19924;-56
2022/11/09 03:39:09;;;;;;;;;;;;;;;9.56;72.66;97660.50;5094905;28;19941;-56
2022/11/09 03:41:37;;;;;;;;;;;;;;;9.54;72.55;97665.44;5091620;28;19932;-57
2022/11/09 03:44:05;;;;;;;;;;;;;;;9.52;72.53;97658.72;5098462;28;19924;-56
2022/11/09 03:46:34;;;;;;;;;;;;;;;9.50;72.56;97660.94;5093860;28;19924;-55
2022/11/09 03:49:02;;;;;;;;;;;;;;;9.52;72.15;97653.28;5101202;28;19967;-55
2022/11/09 03:51:30;;;;;;;;;;;;;;;9.54;72.59;97662.72;5093819;28;19924;-56
2022/11/09 03:53:59;;;;;;;;;;;;;;;9.50;72.18;97659.03;5084515;28;19932;-58
2022/11/09 03:56:28;;;;;;;;;;;;;;;9.56;72.05;97663.22;5102987;28;20266;-57
2022/11/09 03:58:57;;;;;;;;;;;;;;;9.54;72.09;97678.22;5102268;27;19928;-57
2022/11/09 04:01:25;;;;;;;;;;;;;;;9.55;71.52;97686.03;5138054;27;19967;-57
2022/11/09 04:03:53;;;;;;;;;;;;;;;9.73;70.73;97707.81;5138758;27;19923;-57
2022/11/09 04:06:46;;;;;;;;;;;;;;;9.68;70.54;97703.31;5131479;27;20373;-57
2022/11/09 04:09:14;;;;;;;;;;;;;;;9.61;71.29;97716.53;5132651;27;20400;-57
2022/11/09 04:11:44;;;;;;;;;;;;;;;9.68;70.99;97728.53;5127137;27;19984;-60
2022/11/09 04:14:12;;;;;;;;;;;;;;;9.75;70.49;97719.16;5125700;27;19928;-57
2022/11/09 04:16:40;;;;;;;;;;;;;;;9.71;70.72;97716.28;5129159;27;19924;-57
2022/11/09 04:19:08;;;;;;;;;;;;;;;9.70;71.25;97723.63;5104567;27;19933;-57
2022/11/09 04:21:36;;;;;;;;;;;;;;;9.69;70.97;97718.47;5137600;27;19923;-58
2022/11/09 04:24:05;;;;;;;;;;;;;;;9.68;71.65;97733.16;5123082;27;19931;-56
2022/11/09 04:26:32;;;;;;;;;;;;;;;9.72;71.45;97726.00;5128204;27;19923;-57
2022/11/09 04:29:02;;;;;;;;;;;;;;;9.73;71.96;97719.47;5137451;27;20485;-56
2022/11/09 04:31:29;;;;;;;;;;;;;;;9.72;72.09;97712.44;5112399;27;19927;-57
2022/11/09 04:33:59;;;;;;;;;;;;;;;9.75;71.55;97722.69;5130891;27;20304;-57
2022/11/09 04:36:52;;;;;;;;;;;;;;;9.73;71.66;97715.97;5132681;27;19934;-56
2022/11/09 04:39:20;;;;;;;;;;;;;;;9.68;72.14;97695.97;5128985;27;19928;-57
2022/11/09 04:41:48;;;;;;;;;;;;;;;9.57;72.31;97680.28;5131229;27;19928;-58
2022/11/09 04:44:18;;;;;;;;;;;;;;;9.66;72.36;97683.84;5135474;27;19927;-58
2022/11/09 04:46:45;;;;;;;;;;;;;;;9.72;71.88;97688.03;5131569;27;19927;-58
2022/11/09 04:49:38;;;;;;;;;;;;;;;9.68;71.94;97693.28;5130657;27;20512;-57
2022/11/09 04:52:09;;;;;;;;;;;;;;;9.71;71.77;97702.72;5131715;27;19927;-57
2022/11/09 04:54:37;;;;;;;;;;;;;;;9.70;72.00;97706.53;5132882;27;19923;-57
2022/11/09 04:57:06;;;;;;;;;;;;;;;9.68;72.50;97706.03;5123463;27;20300;-57
2022/11/09 04:59:36;;;;;;;;;;;;;;;9.64;72.56;97715.91;5123382;27;19964;-56
2022/11/09 05:02:04;;;;;;;;;;;;;;;9.71;72.05;97716.28;5125117;27;19923;-56
2022/11/09 05:04:32;;;;;;;;;;;;;;;9.69;72.15;97719.31;5117738;27;20581;-56
2022/11/09 05:07:00;;;;;;;;;;;;;;;9.69;72.18;97713.06;5117040;27;19931;-59
2022/11/09 05:09:32;;;;;;;;;;;;;;;9.64;71.90;97707.75;5117054;27;20265;-57
2022/11/09 05:12:00;;;;;;;;;;;;;;;9.68;72.26;97723.09;5135768;27;20235;-57
2022/11/09 05:14:29;;;;;;;;;;;;;;;9.78;72.02;97727.47;5133973;27;19942;-57
2022/11/09 05:17:01;;;;;;;;;;;;;;;9.82;71.47;97736.59;5114209;28;19924;-56
2022/11/09 05:19:55;;;;;;;;;;;;;;;9.84;72.02;97745.22;5122721;28;19928;-56
2022/11/09 05:25:09;;;;;;;;;;;;;;;9.84;71.40;97745.22;5111771;28;19931;-57
2022/11/09 05:27:40;;;;;;;;;;;;;;;9.84;71.28;97741.72;5117997;27;20324;-57
2022/11/09 05:30:09;;;;;;;;;;;;;;;9.85;70.94;97748.75;5130812;27;20304;-57
2022/11/09 05:32:39;;;;;;;;;;;;;;;9.90;71.14;97749.41;5143460;27;19987;-57
2022/11/09 05:35:08;;;;;;;;;;;;;;;9.90;70.94;97752.13;5129337;27;19924;-57
2022/11/09 05:37:37;;;;;;;;;;;;;;;9.87;71.44;97746.53;5128630;28;19924;-57
2022/11/09 05:40:05;;;;;;;;;;;;;;;9.86;71.56;97755.78;5126218;27;19930;-57
2022/11/09 05:42:34;;;;;;;;;;;;;;;9.93;71.14;97756.94;5129567;27;19931;-57
2022/11/09 05:45:02;;;;;;;;;;;;;;;9.91;71.04;97748.31;5135226;27;19923;-56
2022/11/09 05:47:57;;;;;;;;;;;;;;;9.90;71.42;97751.31;5133021;27;19929;-57
2022/11/09 05:50:26;;;;;;;;;;;;;;;9.92;70.89;97760.78;5116109;27;19932;-56
2022/11/09 05:53:09;;;;;;;;;;;;;;;9.94;71.37;97768.59;5134543;27;19927;-55
2022/11/09 05:55:38;;;;;;;;;;;;;;;9.92;71.12;97773.53;5136226;27;19928;-56
2022/11/09 05:58:06;;;;;;;;;;;;;;;9.87;71.49;97784.53;5126675;27;19924;-56
2022/11/09 06:00:35;;;;;;;;;;;;;;;9.95;71.46;97784.56;5118615;27;19931;-57
2022/11/09 06:03:04;;;;;;;;;;;;;;;9.92;71.18;97779.75;5131457;27;19938;-56
2022/11/09 06:05:32;;;;;;;;;;;;;;;9.96;71.47;97788.09;5121631;27;19928;-57
2022/11/09 06:08:03;;;;;;;;;;;;;;;9.89;72.11;97793.94;5129621;27;19927;-56
2022/11/09 06:10:31;;;;;;;;;;;;;;;9.94;72.23;97798.44;5109254;27;19923;-56
2022/11/09 06:13:02;;;;;;;;;;;;;;;9.68;74.26;97784.69;5105876;28;19924;-57
2022/11/09 06:15:30;;;;;;;;;;;;;;;9.81;73.71;97786.56;5121494;27;19932;-56
2022/11/09 06:17:58;;;;;;;;;;;;;;;9.79;74.30;97798.81;5120653;27;19932;-57
2022/11/09 06:20:28;;;;;;;;;;;;;;;9.78;74.47;97792.59;5127053;27;19931;-56
2022/11/09 06:23:33;;;;;;;;;;;;;;;9.84;74.69;97806.84;5131511;27;20044;-56
2022/11/09 06:26:01;;;;;;;;;;;;;;;9.78;76.03;97817.00;5126525;27;20391;-57
2022/11/09 06:28:29;;;;;;;;;;;;;;;9.85;76.55;97811.94;5134905;27;19927;-57
2022/11/09 06:30:57;;;;;;;;;;;;;;;9.70;78.08;97807.72;5127916;27;19992;-56
2022/11/09 06:33:26;;;;;;;;;;;;;;;9.67;78.55;97791.25;5137250;27;19923;-56
2022/11/09 06:35:56;;;;;;;;;;;;;;;9.65;79.09;97807.84;5137090;27;20349;-56
2022/11/09 06:38:25;;;;;;;;;;;;;;;9.67;79.23;97810.22;5135283;27;20387;-56
2022/11/09 06:40:54;;;;;;;;;;;;;;;9.62;79.60;97800.28;5125538;27;19924;-56
2022/11/09 06:43:22;;;;;;;;;;;;;;;9.45;80.55;97802.88;5132013;27;20284;-56
2022/11/09 06:45:52;;;;;;;;;;;;;;;9.38;80.89;97800.59;5132807;27;19946;-56
2022/11/09 06:48:20;;;;;;;;;;;;;;;9.43;80.70;97802.41;5110204;27;19927;-55
2022/11/09 06:50:48;;;;;;;;;;;;;;;9.27;81.57;97807.34;5130012;27;20417;-56
2022/11/09 06:53:18;;;;;;;;;;;;;;;9.37;80.80;97800.88;5129756;27;19924;-56
2022/11/09 06:55:47;;;;;;;;;;;;;;;9.40;81.01;97806.50;5135601;27;19923;-56
2022/11/09 06:58:42;;;;;;;;;;;;;;;9.34;81.58;97818.56;5133828;27;19924;-56
2022/11/09 07:01:12;;;;;;;;;;;;;;;9.17;82.38;97823.84;5127208;27;19935;-56
2022/11/09 07:03:40;;;;;;;;;;;;;;;9.22;83.10;97822.94;5135003;27;19927;-56
2022/11/09 07:06:08;;;;;;;;;;;;;;;9.29;82.81;97828.72;5116199;27;20410;-56
2022/11/09 07:08:38;;;;;;;;;;;;;;;9.30;82.71;97825.69;5122234;27;19923;-57
2022/11/09 07:11:08;;;;;;;;;;;;;;;9.26;83.37;97827.41;5135511;27;19923;-56
2022/11/09 07:13:37;;;;;;;;;;;;;;;9.28;83.34;97827.94;5135929;27;19959;-57
2022/11/09 07:16:05;;;;;;;;;;;;;;;9.33;82.67;97829.72;5126930;27;19950;-56
2022/11/09 07:18:33;;;;;;;;;;;;;;;9.35;82.44;97839.16;5136807;27;20387;-57
2022/11/09 07:21:04;;;;;;;;;;;;;;;9.33;82.71;97835.94;5144010;27;19964;-56
2022/11/09 07:23:38;;;;;;;;;;;;;;;9.43;81.84;97838.44;5125267;27;19934;-56
2022/11/09 07:26:06;;;;;;;;;;;;;;;9.39;82.12;97840.16;5117646;27;19924;-56
2022/11/09 07:28:34;;;;;;;;;;;;;;;9.39;82.36;97836.63;5134411;27;20425;-57
2022/11/09 07:31:02;;;;;;;;;;;;;;;9.37;82.42;97834.22;5131439;27;19923;-58
2022/11/09 07:33:32;;;;;;;;;;;;;;;9.25;83.21;97836.66;5121639;27;19949;-56
2022/11/09 07:39:19;;;;;;;;;;;;;;;9.38;82.37;97833.13;5132281;27;19974;-59
2022/11/09 07:41:48;;;;;;;;;;;;;;;9.39;82.55;97842.88;5115697;27;19927;-56
2022/11/09 07:44:17;;;;;;;;;;;;;;;9.40;82.57;97846.38;5132788;27;19930;-56
2022/11/09 07:46:46;;;;;;;;;;;;;;;9.54;82.32;97852.56;5114808;27;19959;-57
2022/11/09 07:52:09;;;;;;;;;;;;;;;9.56;82.17;97839.50;5126215;27;20032;-56
2022/11/09 07:54:39;;;;;;;;;;;;;;;9.52;82.57;97838.50;5120071;27;19935;-61
2022/11/09 07:57:07;;;;;;;;;;;;;;;9.50;82.87;97842.63;5124492;27;19923;-56
2022/11/09 07:59:36;;;;;;;;;;;;;;;9.53;84.08;97844.72;5109093;28;19924;-57
2022/11/09 08:02:04;;;;;;;;;;;;;;;9.39;84.47;97848.28;5131281;27;20462;-59
2022/11/09 08:04:32;;;;;;;;;;;;;;;9.41;85.11;97842.53;5124028;27;20300;-58
2022/11/09 08:07:01;;;;;;;;;;;;;;;9.38;85.10;97849.41;5127214;27;19938;-57
2022/11/09 08:09:32;;;;;;;;;;;;;;;9.48;85.00;97842.94;5126708;27;19931;-56
2022/11/09 08:12:02;;;;;;;;;;;;;;;9.36;84.95;97835.31;5133240;27;19927;-61
2022/11/09 08:14:31;;;;;;;;;;;;;;;9.49;84.90;97841.03;5124203;27;20257;-57
2022/11/09 08:16:59;;;;;;;;;;;;;;;9.40;85.34;97844.47;5132302;27;19923;-56
2022/11/09 08:19:33;;;;;;;;;;;;;;;9.58;84.88;97847.31;5128783;27;19924;-57
2022/11/09 08:22:02;;;;;;;;;;;;;;;9.66;83.93;97849.31;5134664;27;19931;-56
2022/11/09 08:24:30;;;;;;;;;;;;;;;9.61;83.53;97850.22;5119267;27;19927;-58
2022/11/09 08:26:59;;;;;;;;;;;;;;;9.52;84.23;97851.25;5121690;27;19983;-56
2022/11/09 08:29:28;;;;;;;;;;;;;;;9.60;84.09;97848.63;5130232;27;19927;-57
2022/11/09 08:31:58;;;;;;;;;;;;;;;9.63;83.75;97860.75;5135819;27;19927;-57
2022/11/09 08:34:26;;;;;;;;;;;;;;;9.65;84.25;97859.38;5118890;27;20295;-56
2022/11/09 08:36:55;;;;;;;;;;;;;;;9.62;84.66;97864.59;5142133;27;20299;-56
2022/11/09 08:39:25;;;;;;;;;;;;;;;9.75;83.94;97863.75;5140941;27;20059;-57
2022/11/09 08:41:53;;;;;;;;;;;;;;;9.52;84.31;97867.53;5138542;27;19927;-57
2022/11/09 08:44:21;;;;;;;;;;;;;;;9.78;84.37;97868.56;5130155;27;19923;-56
2022/11/09 08:46:51;;;;;;;;;;;;;;;9.92;83.76;97865.81;5134668;27;20284;-57
2022/11/09 08:49:46;;;;;;;;;;;;;;;10.06;82.85;97863.00;5131650;27;20360;-55
2022/11/09 08:52:15;;;;;;;;;;;;;;;10.12;83.10;97865.31;5124504;27;19927;-56
2022/11/09 08:54:46;;;;;;;;;;;;;;;10.15;82.66;97863.88;5132250;27;19993;-57
2022/11/09 08:57:14;;;;;;;;;;;;;;;10.11;82.97;97865.59;5124575;27;19923;-56
2022/11/09 08:59:43;;;;;;;;;;;;;;;10.17;82.83;97865.19;5132972;27;19931;-63
2022/11/09 09:02:14;;;;;;;;;;;;;;;9.95;83.39;97865.97;5128212;27;20389;-56
2022/11/09 09:04:43;;;;;;;;;;;;;;;9.97;83.63;97860.25;5127979;27;19935;-56
2022/11/09 09:07:11;;;;;;;;;;;;;;;10.08;83.74;97863.53;5138470;27;19930;-57
2022/11/09 09:09:41;;;;;;;;;;;;;;;9.90;83.97;97865.28;5136287;27;19923;-57
2022/11/09 09:12:09;;;;;;;;;;;;;;;9.75;84.38;97855.63;5122462;27;20014;-57
2022/11/09 09:14:38;;;;;;;;;;;;;;;9.89;84.23;97863.69;5132154;27;19927;-57
2022/11/09 09:17:07;;;;;;;;;;;;;;;9.94;83.40;97867.09;5127725;27;19923;-56
2022/11/09 09:19:37;;;;;;;;;;;;;;;9.98;83.44;97872.72;5132351;27;19923;-56
2022/11/09 09:22:05;;;;;;;;;;;;;;;10.02;83.32;97884.56;5138958;27;19966;-57
2022/11/09 09:24:34;;;;;;;;;;;;;;;10.04;83.36;97882.34;5141166;27;19923;-57
2022/11/09 09:27:02;;;;;;;;;;;;;;;9.98;83.46;97883.56;5141186;27;19931;-56
2022/11/09 09:29:31;;;;;;;;;;;;;;;9.96;83.45;97883.88;5126098;28;19976;-56
2022/11/09 09:31:59;;;;;;;;;;;;;;;10.03;82.93;97896.22;5124678;27;19924;-56
2022/11/09 09:34:27;;;;;;;;;;;;;;;10.00;83.60;97896.81;5137647;27;19923;-57
2022/11/09 09:36:57;;;;;;;;;;;;;;;10.03;83.76;97902.44;5126281;27;19923;-57
2022/11/09 09:39:50;;;;;;;;;;;;;;;10.04;83.47;97908.69;5125888;27;19930;-57
2022/11/09 09:42:43;;;;;;;;;;;;;;;10.17;81.46;97914.06;5118033;28;19931;-56
2022/11/09 09:45:14;;;;;;;;;;;;;;;10.12;81.22;97913.34;5120865;28;19927;-57
2022/11/09 09:47:45;;;;;;;;;;;;;;;10.09;81.34;97922.94;5126576;27;20643;-57
2022/11/09 09:51:03;;;;;;;;;;;;;;;10.02;81.98;97916.34;5126921;28;19947;-57
2022/11/09 09:53:35;;;;;;;;;;;;;;;9.80;83.26;97912.47;5128376;27;19923;-57
2022/11/09 09:56:04;;;;;;;;;;;;;;;9.97;83.79;97909.91;5130668;27;19923;-57
2022/11/09 09:58:33;;;;;;;;;;;;;;;10.11;84.03;97901.69;5135047;27;19928;-57
2022/11/09 10:01:04;;;;;;;;;;;;;;;10.36;83.10;97899.50;5137436;27;19922;-57
2022/11/09 10:03:32;;;;;;;;;;;;;;;10.42;83.45;97892.84;5142006;27;19928;-58
2022/11/09 10:06:01;;;;;;;;;;;;;;;10.41;83.34;97886.59;5135522;27;19930;-57
2022/11/09 10:08:33;;;;;;;;;;;;;;;10.28;82.55;97882.06;5132733;27;19928;-57
2022/11/09 10:11:06;;;;;;;;;;;;;;;10.37;83.42;97868.53;5149088;27;19927;-57
2022/11/09 10:13:38;;;;;;;;;;;;;;;10.33;83.24;97856.66;5137470;27;20041;-57
2022/11/09 10:16:35;;;;;;;;;;;;;;;10.69;82.92;97854.63;5137705;27;19992;-57
2022/11/09 10:19:13;;;;;;;;;;;;;;;10.88;82.14;97851.69;5132059;27;20338;-56
2022/11/09 10:21:45;;;;;;;;;;;;;;;11.04;81.84;97853.97;5137812;27;19931;-57
2022/11/09 10:24:19;;;;;;;;;;;;;;;11.09;81.49;97859.25;5116879;27;19972;-57
2022/11/09 10:26:48;;;;;;;;;;;;;;;11.05;81.75;97864.50;5127905;27;19931;-57
2022/11/09 10:29:22;;;;;;;;;;;;;;;11.14;81.16;97853.69;5140109;27;20353;-57
2022/11/09 10:31:51;;;;;;;;;;;;;;;11.21;81.38;97859.44;5121549;27;19927;-58
2022/11/09 10:34:20;;;;;;;;;;;;;;;11.14;80.68;97859.13;5134326;27;20018;-57
2022/11/09 10:36:53;;;;;;;;;;;;;;;11.01;81.13;97853.47;5131643;27;20289;-58
2022/11/09 10:39:24;;;;;;;;;;;;;;;10.99;82.09;97838.59;5131475;27;19924;-57
2022/11/09 10:42:12;;;;;;;;;;;;;;;11.04;82.37;97832.22;5142192;27;19930;-57
2022/11/09 10:44:59;;;;;;;;;;;;;;;11.17;81.86;97834.78;5137420;27;19930;-56
2022/11/09 10:47:48;;;;;;;;;;;;;;;11.20;82.38;97834.16;5136659;27;19930;-56
2022/11/09 10:51:05;;;;;;;;;;;;;;;11.39;81.48;97836.59;5136688;27;19975;-57
2022/11/09 10:53:53;;;;;;;;;;;;;;;11.42;81.28;97844.13;5140579;27;20299;-57
2022/11/09 10:56:45;;;;;;;;;;;;;;;11.17;82.01;97842.16;5130113;27;20299;-57
2022/11/09 10:59:51;;;;;;;;;;;;;;;11.27;82.71;97837.22;5128390;27;19930;-57
2022/11/09 11:02:43;;;;;;;;;;;;;;;11.46;82.76;97833.41;5114560;27;20276;-57
2022/11/09 11:05:31;;;;;;;;;;;;;;;11.50;82.69;97828.91;5122590;27;20298;-57
2022/11/09 11:08:22;;;;;;;;;;;;;;;11.65;81.74;97835.81;5124576;27;19943;-58
2022/11/09 11:11:20;;;;;;;;;;;;;;;11.65;80.94;97820.28;5119505;27;19938;-58
2022/11/09 11:14:30;;;;;;;;;;;;;;;11.66;81.40;97816.44;5120181;27;19946;-57
2022/11/09 11:17:20;;;;;;;;;;;;;;;11.51;82.72;97803.34;5119449;27;20078;-58
2022/11/09 11:20:22;;;;;;;;;;;;;;;11.76;82.83;97798.97;5131701;27;20329;-57
2022/11/09 11:23:13;;;;;;;;;;;;;;;11.90;82.31;97805.09;5131205;27;20071;-57
2022/11/09 11:26:02;;;;;;;;;;;;;;;11.92;82.60;97794.69;5136129;27;19930;-57
2022/11/09 11:28:49;;;;;;;;;;;;;;;12.03;82.74;97792.41;5143407;27;19946;-57
2022/11/09 11:31:38;;;;;;;;;;;;;;;12.12;81.53;97792.41;5143823;27;19931;-57
2022/11/09 11:34:24;;;;;;;;;;;;;;;12.06;81.14;97787.13;5134032;27;20407;-57
2022/11/09 11:37:36;;;;;;;;;;;;;;;12.02;82.32;97777.22;5138327;27;20048;-58
2022/11/09 11:40:25;;;;;;;;;;;;;;;12.14;81.73;97776.53;5129311;27;19931;-57
2022/11/09 11:43:18;;;;;;;;;;;;;;;12.22;81.80;97779.25;5128758;27;20027;-57
2022/11/09 11:46:09;;;;;;;;;;;;;;;12.11;81.74;97785.38;5133773;27;19931;-57
2022/11/09 11:49:15;;;;;;;;;;;;;;;12.24;81.41;97781.63;5127548;27;19930;-57
2022/11/09 11:52:27;;;;;;;;;;;;;;;12.26;81.29;97777.47;5129380;27;19931;-57
2022/11/09 11:55:18;;;;;;;;;;;;;;;12.28;81.31;97777.16;5134039;27;20355;-57
2022/11/09 11:58:11;;;;;;;;;;;;;;;12.34;81.63;97775.84;5131745;27;19999;-56
2022/11/09 12:01:02;;;;;;;;;;;;;;;12.53;81.69;97778.97;5130837;27;19984;-57
2022/11/09 12:03:50;;;;;;;;;;;;;;;12.57;81.23;97774.47;5140715;27;19938;-58
2022/11/09 12:06:58;;;;;;;;;;;;;;;12.76;80.01;97765.09;5131090;27;20067;-57
2022/11/09 12:09:50;;;;;;;;;;;;;;;12.89;78.97;97769.50;5148063;27;19933;-58
2022/11/09 12:12:41;;;;;;;;;;;;;;;12.90;78.97;97762.91;5133088;27;20077;-57
2022/11/09 12:15:31;;;;;;;;;;;;;;;12.80;79.09;97755.13;5129365;27;20398;-57
2022/11/09 12:18:28;;;;;;;;;;;;;;;12.54;79.78;97757.97;5127512;27;19932;-57
2022/11/09 12:21:39;;;;;;;;;;;;;;;12.81;79.23;97760.25;5133079;27;19966;-57
2022/11/09 12:24:28;;;;;;;;;;;;;;;12.79;79.56;97757.06;5136169;27;19934;-57
2022/11/09 12:27:23;;;;;;;;;;;;;;;12.82;79.81;97761.03;5124557;27;19939;-57
2022/11/09 12:30:18;;;;;;;;;;;;;;;12.95;79.47;97756.47;5122636;27;20063;-57
2022/11/09 12:33:06;;;;;;;;;;;;;;;13.09;79.12;97757.81;5132467;27;19934;-57
2022/11/09 12:35:56;;;;;;;;;;;;;;;13.08;79.13;97750.75;5133117;27;19934;-56
2022/11/09 12:38:46;;;;;;;;;;;;;;;13.09;79.26;97752.34;5130231;27;20257;-57
2022/11/09 12:41:40;;;;;;;;;;;;;;;13.10;79.61;97758.59;5136454;27;20130;-58
2022/11/09 12:44:30;;;;;;;;;;;;;;;13.22;79.61;97752.47;5133715;27;20514;-59
2022/11/09 12:47:21;;;;;;;;;;;;;;;12.95;79.97;97746.38;5135958;27;19949;-57
2022/11/09 12:50:11;;;;;;;;;;;;;;;13.02;79.62;97740.38;5125289;27;19947;-58
2022/11/09 12:52:59;;;;;;;;;;;;;;;12.88;79.70;97746.06;5129997;27;19930;-57
2022/11/09 12:55:47;;;;;;;;;;;;;;;12.79;80.55;97740.69;5128991;27;19938;-57
2022/11/09 12:58:34;;;;;;;;;;;;;;;12.69;81.11;97756.63;5124531;27;19930;-59
2022/11/09 13:01:52;;;;;;;;;;;;;;;12.66;81.33;97754.53;5125728;27;19930;-57
2022/11/09 13:04:40;;;;;;;;;;;;;;;12.69;81.28;97760.16;5085946;28;19951;-57
2022/11/09 13:07:28;;;;;;;;;;;;;;;12.70;81.88;97755.50;5131841;27;19931;-57
2022/11/09 13:10:25;;;;;;;;;;;;;;;12.68;82.10;97764.00;5122581;27;20435;-57
2022/11/09 13:13:23;;;;;;;;;;;;;;;12.79;82.10;97753.53;5132161;27;20001;-57
2022/11/09 13:16:11;;;;;;;;;;;;;;;12.70;82.10;97753.56;5119542;27;19997;-57
2022/11/09 13:18:58;;;;;;;;;;;;;;;12.79;81.83;97756.25;5130190;27;19934;-58
2022/11/09 13:21:47;;;;;;;;;;;;;;;12.85;81.69;97755.72;5132272;27;19938;-57
2022/11/09 13:24:55;;;;;;;;;;;;;;;12.95;82.04;97762.72;5130752;27;19959;-57
2022/11/09 13:27:43;;;;;;;;;;;;;;;12.96;81.78;97758.88;5125804;28;19930;-57
2022/11/09 13:30:37;;;;;;;;;;;;;;;13.02;81.95;97754.81;5125296;27;20061;-57
2022/11/09 13:33:25;;;;;;;;;;;;;;;12.96;82.22;97758.88;5147470;27;20303;-57
2022/11/09 13:36:14;;;;;;;;;;;;;;;12.98;82.21;97755.81;5136522;27;19939;-56
2022/11/09 13:39:22;;;;;;;;;;;;;;;12.94;82.76;97757.59;5136662;27;20025;-57
2022/11/09 13:42:19;;;;;;;;;;;;;;;12.88;82.46;97758.91;5147049;27;19930;-57
2022/11/09 13:45:25;;;;;;;;;;;;;;;12.92;82.68;97760.66;5132942;27;19923;-57
2022/11/09 13:48:30;;;;;;;;;;;;;;;12.84;82.55;97766.97;5129414;27;19930;-58
2022/11/09 13:51:18;;;;;;;;;;;;;;;12.72;83.04;97761.41;5130423;27;19957;-58
2022/11/09 13:54:06;;;;;;;;;;;;;;;12.73;83.09;97765.72;5141514;27;20397;-57
2022/11/09 13:56:53;;;;;;;;;;;;;;;12.72;83.07;97772.31;5146097;27;20022;-57